Terminal Aerodrome Forecast
Issued by NWS

Home | Current Version | Previous Version | Text Only | Print | Product List | Glossary On
Versions: 1 2 3 4 5 6 7 8 9 10 11 12 13 14 15 16
016
FTUS44 KMAF 261723
TAFINK
TAF
KINK 261723Z 2618/2718 24018G25KT P6SM FEW250
     FM270200 27010KT P6SM FEW120 SCT250
     FM270600 15010KT P6SM FEW250
      AMD NOT SKED=

USA.gov is the U.S. government's official web portal to all federal, state and local government web resources and services.